Wardeh — ODUS — position and weather

sailwx.info

Track history (hours):
 
Tides and Currents Weather Stations Pressure Air Temp Water Temp Dewpoint Dewpoint Depression Visibility Wind Speed Wind Dir Waves Ship Positions

Wardeh

Last reported at 2017-Mar-22 18:28 UTC. Time now 2017-Mar-24 14:08 UTC.
Position N 37°60' E 024°38'.

; draft 7.5 m.

Type: Cargo ship. MMSI: 450522000.

Date/timePositionNaut miles runAvg speedWind from/ knotsBaromVisibWave heightAir tempDewpointWater temp
2017-Mar-22 18:28N 37°60' E 024°38'1314.3
2017-Mar-22 17:33N 37°47' E 024°32'46513.2
2017-Mar-21 06:16N 36°36' E 014°55'1514.6
2017-Mar-21 05:16N 36°40' E 014°37'1115.1
2017-Mar-21 04:33N 36°43' E 014°24'1514.8
2017-Mar-21 03:33N 36°47' E 014°06'1414.2
2017-Mar-21 02:33N 36°50' E 013°49'1514.7
2017-Mar-21 01:33N 36°54' E 013°31'1514.6
2017-Mar-21 00:33N 36°58' E 013°14'1514.7
2017-Mar-20 23:31N 37°01' E 012°55'1414.4
2017-Mar-20 22:33N 37°05' E 012°38'1514.3
2017-Mar-20 21:32N 37°08' E 012°20'1313.6
2017-Mar-20 20:33N 37°11' E 012°04'1414.2
2017-Mar-20 19:33N 37°14' E 011°47'1414.2
2017-Mar-20 18:32N 37°18' E 011°29'10514.1
2017-Mar-20 11:04N 37°26' E 009°18'17514.0
2017-Mar-19 22:33N 37°13' E 005°39'5814.4
2017-Mar-19 18:31N 37°05' E 004°26'9213.2
2017-Mar-19 11:33N 36°52' E 002°32'37214.3
2017-Mar-18 09:31N 35°60' W 005°06'1414.2
2017-Mar-18 08:33N 35°58' W 005°23'1414.2
2017-Mar-18 07:33N 35°54' W 005°40'  
2017-Mar-16 02:22N 27°56' W 015°17'1013.0
2017-Mar-16 01:34N 27°45' W 015°19'  
Track history (hours):
 
Tides and Currents Weather Stations Pressure Air Temp Water Temp Dewpoint Dewpoint Depression Visibility Wind Speed Wind Dir Waves Ship Positions

Wardeh

Last reported at 2017-Mar-22 18:28 UTC. Time now 2017-Mar-24 14:08 UTC.
Position N 37°60' E 024°38'.

; draft 7.5 m.

Type: Cargo ship. MMSI: 450522000.

Date/timePositionNaut miles runAvg speedWind from/ knotsBaromVisibWave heightAir tempDewpointWater temp
2017-Mar-22 18:28N 37°60' E 024°38'1314.3
2017-Mar-22 17:33N 37°47' E 024°32'46513.2
2017-Mar-21 06:16N 36°36' E 014°55'1514.6
2017-Mar-21 05:16N 36°40' E 014°37'1115.1
2017-Mar-21 04:33N 36°43' E 014°24'1514.8
2017-Mar-21 03:33N 36°47' E 014°06'1414.2
2017-Mar-21 02:33N 36°50' E 013°49'1514.7
2017-Mar-21 01:33N 36°54' E 013°31'1514.6
2017-Mar-21 00:33N 36°58' E 013°14'1514.7
2017-Mar-20 23:31N 37°01' E 012°55'1414.4
2017-Mar-20 22:33N 37°05' E 012°38'1514.3
2017-Mar-20 21:32N 37°08' E 012°20'1313.6
2017-Mar-20 20:33N 37°11' E 012°04'1414.2
2017-Mar-20 19:33N 37°14' E 011°47'1414.2
2017-Mar-20 18:32N 37°18' E 011°29'10514.1
2017-Mar-20 11:04N 37°26' E 009°18'17514.0
2017-Mar-19 22:33N 37°13' E 005°39'5814.4
2017-Mar-19 18:31N 37°05' E 004°26'9213.2
2017-Mar-19 11:33N 36°52' E 002°32'37214.3
2017-Mar-18 09:31N 35°60' W 005°06'1414.2
2017-Mar-18 08:33N 35°58' W 005°23'1414.2
2017-Mar-18 07:33N 35°54' W 005°40'  
2017-Mar-16 02:22N 27°56' W 015°17'1013.0
2017-Mar-16 01:34N 27°45' W 015°19'  

Dump ship's entire track history